AirNav   Everest Fuels
 
 730 users online  

65WI STOL Airport
Prescott, Wisconsin, USA

GOING TO PRESCOTT?


FAA INFORMATION EFFECTIVE 26 JANUARY 2023

Location

FAA Identifier: 65WI
Lat/Long: 44-41-19.4100N 092-41-08.4800W
44-41.323500N 092-41.141333W
44.6887250,-92.6856889
(estimated)
Elevation: 980 ft. / 299 m (estimated)
From city: 6 miles SE of PRESCOTT, WI
Time zone: UTC -6 (UTC -5 during Daylight Saving Time)
Zip code: 55089

Airport Operations

Airport use: Private use. Permission required prior to landing
Activation date: 07/2019
Control tower: no
ARTCC: MINNEAPOLIS CENTER
FSS: GREEN BAY FLIGHT SERVICE STATION
Attendance: 
Segmented circle: no

Airport Communications

WX AWOS-3 at RGK (10 nm SE): 119.25 (715-594-3763)
WX AWOS-3 at SGS (18 nm NW): 119.425 (651-457-8120)
WX AWOS-3 at SYN (19 nm SW): 119.35 (507-664-3806)
WX AWOS-3 at 21D (20 nm N): 120.075 (651-779-5949)

Nearby radio navigation aids

VOR radial/distance  VOR name  Freq  Var
FGTr075/21.5FARMINGTON VORTAC115.7006E
MSPr116/26.6MINNEAPOLIS VOR/DME115.3002E
FCMr103/33.3FLYING CLOUD VOR/DME117.7001E

 
NDB name  Hdg/Dist  Freq  Var  ID
REGUE341/5.727402ERG .-. --.

Airport Services

Runway Information

Runway 9/27

Dimensions: 1047 x 50 ft. / 319 x 15 m
Surface: turf
RUNWAY 9  RUNWAY 27
Latitude: 44-41.321667N44-41.325333N
Longitude: 092-41.262000W092-41.020500W
Elevation: 980.0 ft.980.0 ft.
Traffic pattern: leftleft
Runway heading: 089 true269 true

Airport Ownership and Management from official FAA records

Ownership: Privately-owned
Owner: CHRIS BREKKEN
N4175 1080TH STREET
PRESCOTT, WI 54021
Phone 612-859-5513
Manager: CHRIS BREKKEN
N4175 1080TH STREET
PRESCOTT, WI 54021
Phone 612-859-5513

Airport Operational Statistics

Aircraft based on the field: 4
Single engine airplanes: 1
Multi engine airplanes: 1
Helicopters: 1
Gliders airplanes: 1
    

Additional Remarks

OWNER DESIRES ARPT NOT BE CHARTED.

Instrument Procedures

There are no published instrument procedures at 65WI.

Some nearby airports with instrument procedures:

KRGK - Red Wing Regional Airport (10 nm SE)
KSGS - South St Paul Municipal Airport/Richard E Fleming Field (18 nm NW)
21D - Lake Elmo Airport (20 nm N)
KSTP - St Paul Downtown Airport Holman Field (22 nm NW)
KLVN - Airlake Airport (23 nm W)
 
Loc | Ops | Rwys | IFR | FBO | Links
Com | Nav | Svcs | Stats | Notes
Aerial photo
No photo
 
Airport distance calculator
Flying to STOL Airport? Find the distance to fly.

From to 65WI

Sunrise and sunset
Times for 27-Jan-2023
 Local
(UTC-6)
 Zulu
(UTC)
Morning civil twilight07:0513:05
Sunrise07:3613:36
Sunset17:1123:11
Evening civil twilight17:4323:43

Current date and time
Zulu (UTC)  27-Jan-2023 11:58:32
Local (UTC-6)  27-Jan-2023 05:58:32
 
METAR
KRGK 
12nm SE 
271155Z AUTO 19006KT 5SM -SN BKN012 OVC019 M03/M05 A2944 RMK AO2
KSYN 
19nm SW 
271155Z AUTO 21015KT 4SM -SN OVC013 00/M01 A2942 RMK AO2 T10031015 11003 21066
K21D 
20nm N 
271155Z AUTO 19009KT 2 1/2SM -SN M02/M03 A2940 RMK AO2
KSTP 
21nm NW 
271153Z 17004KT 1 3/4SM -SN BR OVC012 M02/M03 A2941 RMK AO2 SLP967 P0000 60004 70004 T10221033 11022 21078 56029
KSGS 
22nm NW 
271059Z AUTO 20007KT 4SM -SN OVC009 M02/M04 A2941 RMK AO2
KLVN 
23nm W 
271155Z AUTO 23004KT 4SM -SN OVC010 M01/M01 A2940 RMK AO2 P0001
TAF
NOTAMs
Click for the latest NOTAMs
NOTAMs are issued by the DoD/FAA and will open in a separate window not controlled by AirNav.

 

 
 

Would you like to see your business listed on this page?

 If your business provides an interesting product or service to pilots, flight crews, aircraft, or users of the STOL Airport, you should consider listing it here.  To start the listing process, click on the button below
 
Add a business
 

Other Pages about STOL Airport

Update a link
 
Copyright © AirNav, LLC. All rights reserved. Privacy Policy  Contact